»·PEaware :: N2Q KJAC-KRKS

N2Q :: KJAC-KRKS

FLIGHT INFORMATION

Flight Status: Arrived
Operator: Privately registered:
United States
More flights under this callsign
Pilot: Alex K. (14822)
Aircraft: CESSNA 550 CITATION 2/S2/BRAVO
(C550)
More flights by this aircraft type
Origin: KJAC Jackson Hole
United States
Destination: KRKS Rock Springs-Sweetwater
United States
More flights between these airports :: More routes between these airports
Route: ALPIN2 BPI V328 OCS
File this flight plan on PilotEdge
Remarks:
Altitude:
(Current/Filed)
23,000ft
Speed:
(Current/Filed)
220kts
Departed: 30-Oct-18 11:38 AM
Arrived: 30-Oct-18 12:15 PM
Distance/Time
Traveled:
141nm/0:37
Distance/Time
To Go:
Arrived

Flight Plot

Page will automatically refresh every two minutes.

Flight plan parsing failed; only flown route is shown


Map Options




Map Legend


Flown Route
Filed Route
Departure Airport
Arrival Airport
Navaid (VOR, NDB)
Fix

Horizontal Profiles

Position Reports

Time Latitude Longitude Heading Altitude Ground
Speed
30-Oct-18 11:10 43.598831 -110.739141 108 6425ft 0kts
30-Oct-18 11:11 43.598831 -110.739141 108 6425ft 0kts
30-Oct-18 11:12 43.598831 -110.739141 108 6425ft 0kts
30-Oct-18 11:13 43.598831 -110.739141 108 6425ft 0kts
30-Oct-18 11:14 43.598831 -110.739141 108 6425ft 0kts
30-Oct-18 11:15 43.598831 -110.739141 108 6425ft 0kts
30-Oct-18 11:16 43.598831 -110.739141 108 6425ft 0kts
30-Oct-18 11:17 43.598831 -110.739141 108 6425ft 0kts
30-Oct-18 11:18 43.598831 -110.739141 108 6425ft 0kts
30-Oct-18 11:19 43.598831 -110.739141 108 6425ft 0kts
30-Oct-18 11:21 43.598831 -110.739141 108 6425ft 0kts
30-Oct-18 11:22 43.598831 -110.739141 108 6425ft 0kts
30-Oct-18 11:23 43.598831 -110.739141 108 6425ft 0kts
30-Oct-18 11:24 43.598831 -110.739141 108 6425ft 0kts
30-Oct-18 11:25 43.598831 -110.739141 108 6425ft 0kts
30-Oct-18 11:26 43.598831 -110.739141 108 6425ft 0kts
30-Oct-18 11:27 43.598831 -110.739141 108 6425ft 0kts
30-Oct-18 11:28 43.598831 -110.739141 108 6425ft 0kts
30-Oct-18 11:29 43.598831 -110.739141 108 6425ft 0kts
30-Oct-18 11:30 43.598831 -110.739141 108 6425ft 0kts
30-Oct-18 11:31 43.598831 -110.739141 108 6425ft 0kts
30-Oct-18 11:32 43.598831 -110.739141 108 6425ft 0kts
30-Oct-18 11:33 43.598831 -110.739141 108 6425ft 0kts
30-Oct-18 11:34 43.598831 -110.739141 108 6425ft 0kts
30-Oct-18 11:35 43.599930 -110.739206 294 6425ft 15kts
30-Oct-18 11:36 43.605220 -110.737183 18 6425ft 26kts
30-Oct-18 11:37 43.612165 -110.733792 19 6425ft 23kts
30-Oct-18 11:38 43.614962 -110.732664 336 6425ft 0kts
30-Oct-18 11:39 43.614962 -110.732664 336 6425ft 0kts
30-Oct-18 11:40 43.615242 -110.733933 187 6425ft 5kts
30-Oct-18 11:41 43.606875 -110.738007 199 6621ft 135kts
30-Oct-18 11:42 43.559285 -110.767968 206 10141ft 228kts
30-Oct-18 11:43 43.501041 -110.806058 207 13895ft 242kts
30-Oct-18 11:44 43.439076 -110.846123 208 17192ft 255kts
30-Oct-18 11:45 43.375440 -110.887179 209 20020ft 266kts
30-Oct-18 11:46 43.307574 -110.930873 209 22536ft 277kts
30-Oct-18 11:47 43.230476 -110.968794 173 23263ft 329kts
30-Oct-18 11:48 43.152833 -110.894723 137 23255ft 357kts
30-Oct-18 11:49 43.082091 -110.797721 136 23242ft 364kts
30-Oct-18 11:50 43.010742 -110.698971 136 23231ft 367kts
30-Oct-18 11:51 42.938774 -110.599682 136 23228ft 369kts
30-Oct-18 11:52 42.866809 -110.500765 136 23216ft 371kts
30-Oct-18 11:53 42.794154 -110.401265 136 23205ft 373kts
30-Oct-18 11:54 42.721521 -110.302121 137 23199ft 373kts
30-Oct-18 11:55 42.648595 -110.202941 137 23199ft 372kts
30-Oct-18 11:56 42.574882 -110.104577 141 23200ft 371kts
30-Oct-18 11:57 42.495729 -110.014837 142 23201ft 372kts
30-Oct-18 11:58 42.416502 -109.925853 142 23201ft 372kts
30-Oct-18 11:59 42.337997 -109.837984 142 23198ft 373kts
30-Oct-18 12:00 42.258946 -109.749783 142 23200ft 373kts
30-Oct-18 12:01 42.186302 -109.669008 142 21729ft 302kts
30-Oct-18 12:02 42.125369 -109.601545 142 19930ft 296kts
30-Oct-18 12:03 42.064199 -109.533807 141 19341ft 287kts
30-Oct-18 12:04 42.003406 -109.466739 141 18473ft 283kts
30-Oct-18 12:04 41.953449 -109.411761 141 17545ft 278kts
30-Oct-18 12:05 41.895224 -109.347812 141 16483ft 272kts
30-Oct-18 12:06 41.842556 -109.290132 141 15548ft 267kts
30-Oct-18 12:07 41.789708 -109.224872 113 14581ft 260kts
30-Oct-18 12:08 41.760565 -109.135298 112 13677ft 282kts
30-Oct-18 12:09 41.728422 -109.033058 112 12792ft 314kts
30-Oct-18 12:11 41.692362 -108.916561 112 11744ft 280kts
30-Oct-18 12:11 41.666422 -108.839139 132 10988ft 273kts
30-Oct-18 12:12 41.597416 -108.843116 226 10093ft 262kts
30-Oct-18 12:13 41.569186 -108.928956 264 9095ft 234kts
30-Oct-18 12:14 41.581829 -108.992990 284 7855ft 127kts
30-Oct-18 12:15 41.589244 -109.034342 285 6957ft 111kts
30-Oct-18 12:16 41.594459 -109.063800 283 6741ft 41kts
30-Oct-18 12:17 41.598404 -109.065627 44 6741ft 20kts
30-Oct-18 12:18 41.598672 -109.064252 317 6741ft 0kts
30-Oct-18 12:19 41.598672 -109.064252 317 6741ft 0kts

Navigation Log

Ident Type
Flight plan parsing failed, navigation log unavailable